Time;durP1;ratioP1;P1;durP2;ratioP2;P2;SDS_P1;SDS_P2;PMS_P1;PMS_P2;Temp;Humidity;BMP_temperature;BMP_pressure;BME280_temperature;BME280_humidity;BME280_pressure;Samples;Min_cycle;Max_cycle;Signal;HPM_P1;HPM_P2
2022/05/30 00:02:18;;;;;;;3.33;3.03;;;10.70;45.80;;;;;;4970743;28;20188;-71
2022/05/30 00:04:44;;;;;;;4.67;3.33;;;10.70;40.50;;;;;;4982899;28;20612;-72
2022/05/30 00:07:09;;;;;;;4.27;3.37;;;10.30;45.50;;;;;;4973137;28;20179;-71
2022/05/30 00:09:35;;;;;;;3.50;3.20;;;10.50;44.00;;;;;;4971387;28;20190;-71
2022/05/30 00:12:02;;;;;;;3.70;3.30;;;10.30;50.10;;;;;;4970210;28;20193;-71
2022/05/30 00:14:28;;;;;;;3.77;3.20;;;10.20;48.40;;;;;;4960914;28;20216;-71
2022/05/30 00:16:56;;;;;;;3.43;3.00;;;10.00;55.90;;;;;;4964100;28;20442;-71
2022/05/30 00:19:21;;;;;;;3.77;3.10;;;9.90;61.40;;;;;;4980711;28;20805;-71
2022/05/30 00:21:47;;;;;;;4.23;3.27;;;9.80;66.80;;;;;;4981102;28;20433;-72
2022/05/30 00:24:13;;;;;;;4.00;3.20;;;9.70;64.10;;;;;;4968833;28;20230;-71
2022/05/30 00:26:39;;;;;;;5.10;2.93;;;9.60;62.90;;;;;;4975344;28;20185;-71
2022/05/30 00:29:05;;;;;;;3.40;2.97;;;9.60;75.20;;;;;;4986484;28;20430;-71
2022/05/30 00:31:32;;;;;;;6.80;3.07;;;9.50;78.50;;;;;;4968558;28;20224;-71
2022/05/30 00:33:58;;;;;;;4.77;3.07;;;9.80;79.10;;;;;;4976215;28;20431;-71
2022/05/30 00:36:23;;;;;;;4.70;4.20;;;9.50;76.80;;;;;;4971746;28;20449;-71
2022/05/30 00:38:49;;;;;;;5.50;3.43;;;9.50;74.10;;;;;;4979856;28;20678;-71
2022/05/30 00:41:16;;;;;;;3.57;3.27;;;9.30;77.60;;;;;;4967038;28;20183;-71
2022/05/30 00:43:45;;;;;;;3.50;3.20;;;9.40;80.80;;;;;;4977813;28;20190;-71
2022/05/30 00:46:12;;;;;;;3.47;3.17;;;9.30;79.40;;;;;;4976288;28;20453;-71
2022/05/30 00:48:47;;;;;;;8.23;3.70;;;9.30;83.60;;;;;;4963903;28;20915;-71
2022/05/30 00:51:18;;;;;;;4.30;3.63;;;9.20;81.50;;;;;;4977246;28;20442;-71
2022/05/30 00:53:46;;;;;;;4.67;3.73;;;9.10;85.30;;;;;;4979903;28;20465;-71
2022/05/30 00:56:13;;;;;;;3.83;3.40;;;9.00;87.60;;;;;;4978084;28;20577;-71
2022/05/30 00:58:46;;;;;;;3.83;3.40;;;9.00;88.30;;;;;;4978422;28;20466;-71
2022/05/30 01:01:13;;;;;;;4.87;3.70;;;9.00;89.10;;;;;;4977737;28;20465;-71
2022/05/30 01:06:41;;;;;;;4.27;3.40;;;8.90;91.00;;;;;;4971289;28;20490;-71
2022/05/30 01:09:17;;;;;;;6.60;4.00;;;8.80;91.80;;;;;;4978318;28;20893;-71
2022/05/30 01:11:54;;;;;;;5.10;3.83;;;8.70;93.80;;;;;;4978376;28;20507;-71
2022/05/30 01:14:22;;;;;;;4.83;3.53;;;8.70;92.80;;;;;;4975430;28;20460;-71
2022/05/30 01:16:48;;;;;;;5.83;3.20;;;8.60;93.00;;;;;;4992914;28;20427;-71
2022/05/30 01:19:48;;;;;;;4.10;3.37;;;8.70;92.60;;;;;;4969876;28;20557;-71
2022/05/30 01:22:37;;;;;;;3.47;3.13;;;8.50;94.30;;;;;;4978731;28;20425;-71
2022/05/30 01:25:22;;;;;;;5.23;3.87;;;8.50;96.50;;;;;;4985288;28;20447;-72
2022/05/30 01:27:53;;;;;;;3.87;3.40;;;8.60;96.30;;;;;;4970901;28;20407;-71
2022/05/30 01:30:19;;;;;;;4.67;3.83;;;8.60;92.90;;;;;;4971345;28;20423;-71
2022/05/30 01:32:45;;;;;;;5.33;4.00;;;8.50;94.90;;;;;;4975166;28;20443;-72
2022/05/30 01:35:12;;;;;;;4.37;3.40;;;8.50;96.70;;;;;;4974904;28;20997;-71
2022/05/30 01:37:38;;;;;;;5.50;3.90;;;8.40;96.60;;;;;;4969730;28;20583;-71
2022/05/30 01:40:04;;;;;;;5.63;3.77;;;8.40;97.70;;;;;;4981502;28;20917;-72
2022/05/30 01:42:30;;;;;;;3.83;3.47;;;8.50;97.50;;;;;;4974589;28;20190;-70
2022/05/30 01:44:55;;;;;;;4.10;3.37;;;8.40;98.30;;;;;;4970513;28;20493;-71
2022/05/30 01:47:21;;;;;;;4.90;3.30;;;8.40;95.10;;;;;;4978629;28;20179;-70
2022/05/30 01:49:47;;;;;;;3.93;3.50;;;8.20;96.30;;;;;;4987874;28;20210;-71
2022/05/30 01:52:12;;;;;;;3.90;3.50;;;8.20;96.40;;;;;;4976922;28;20398;-70
2022/05/30 01:54:38;;;;;;;4.20;3.77;;;8.40;98.70;;;;;;4972762;28;20211;-71
2022/05/30 01:57:04;;;;;;;6.40;3.80;;;7.70;98.30;;;;;;4969249;28;20196;-70
2022/05/30 01:59:29;;;;;;;4.87;3.83;;;8.10;98.60;;;;;;4972539;28;20227;-71
2022/05/30 02:01:55;;;;;;;4.53;3.37;;;8.10;97.50;;;;;;4972151;28;20437;-70
2022/05/30 02:04:21;;;;;;;4.50;3.40;;;8.10;98.70;;;;;;4973524;28;20674;-70
2022/05/30 02:06:46;;;;;;;4.17;3.63;;;8.10;98.60;;;;;;4970258;28;20187;-70
2022/05/30 02:09:12;;;;;;;6.30;3.30;;;8.30;98.40;;;;;;4977319;28;20510;-71
2022/05/30 02:11:38;;;;;;;4.43;3.47;;;8.10;95.90;;;;;;4970459;28;20259;-71
2022/05/30 02:14:04;;;;;;;4.40;3.33;;;8.20;98.40;;;;;;4977788;28;20247;-71
2022/05/30 02:19:18;;;;;;;7.13;3.57;;;8.10;98.60;;;;;;4969508;28;20453;-70
2022/05/30 02:21:43;;;;;;;4.73;3.70;;;8.00;98.50;;;;;;4986335;28;20423;-70
2022/05/30 02:24:09;;;;;;;3.30;3.00;;;8.10;98.00;;;;;;4976982;28;20439;-70
2022/05/30 02:26:36;;;;;;;9.43;3.93;;;8.00;96.40;;;;;;4967078;28;20190;-70
2022/05/30 02:29:03;;;;;;;4.93;3.83;;;8.20;98.40;;;;;;4966615;28;20337;-71
2022/05/30 02:31:28;;;;;;;3.70;3.20;;;8.10;98.60;;;;;;4969058;28;20427;-71
2022/05/30 02:36:40;;;;;;;4.00;3.40;;;7.80;99.30;;;;;;4975977;28;20273;-70
2022/05/30 02:39:11;;;;;;;4.43;3.53;;;7.50;99.90;;;;;;4976840;28;20578;-71
2022/05/30 02:41:36;;;;;;;5.13;4.10;;;7.40;99.90;;;;;;4961526;28;21005;-70
2022/05/30 02:44:03;;;;;;;6.60;3.90;;;7.40;99.90;;;;;;4989109;28;20435;-70
2022/05/30 02:46:28;;;;;;;6.97;4.20;;;7.30;99.90;;;;;;4971387;28;20184;-70
2022/05/30 02:48:54;;;;;;;4.70;3.60;;;7.20;99.90;;;;;;4980379;28;20484;-70
2022/05/30 02:51:19;;;;;;;5.10;3.83;;;7.20;99.90;;;;;;4969221;28;20658;-71
2022/05/30 02:53:45;;;;;;;6.30;3.90;;;7.20;99.90;;;;;;4969829;28;20182;-71
2022/05/30 02:56:12;;;;;;;4.83;4.20;;;7.20;99.90;;;;;;4968827;28;20246;-70
2022/05/30 02:58:38;;;;;;;4.30;3.70;;;7.20;99.90;;;;;;4968638;28;20206;-70
2022/05/30 03:01:04;;;;;;;5.33;4.00;;;7.00;99.90;;;;;;4967755;28;20411;-69
2022/05/30 03:03:30;;;;;;;6.63;4.10;;;7.00;99.90;;;;;;4950262;28;20687;-71
2022/05/30 03:05:55;;;;;;;4.47;4.07;;;6.90;99.90;;;;;;4962031;28;20514;-70
2022/05/30 03:08:21;;;;;;;4.60;3.90;;;7.10;99.90;;;;;;4976849;28;20455;-71
2022/05/30 03:10:47;;;;;;;4.80;4.27;;;7.20;99.90;;;;;;4968547;28;20594;-71
2022/05/30 03:13:13;;;;;;;4.40;4.00;;;6.80;99.90;;;;;;4976479;28;20315;-70
2022/05/30 03:15:38;;;;;;;4.30;3.63;;;6.80;99.90;;;;;;4968296;28;20927;-70
2022/05/30 03:18:05;;;;;;;5.97;4.23;;;7.10;99.90;;;;;;4980299;28;20654;-70
2022/05/30 03:20:30;;;;;;;7.00;3.93;;;6.90;99.90;;;;;;4981470;28;20246;-71
2022/05/30 03:22:56;;;;;;;4.63;3.80;;;6.90;99.90;;;;;;4979285;28;20450;-70
2022/05/30 03:25:22;;;;;;;4.90;4.07;;;7.40;99.90;;;;;;4969656;28;20200;-70
2022/05/30 03:27:48;;;;;;;8.60;4.53;;;6.80;99.90;;;;;;4976494;28;20206;-71
2022/05/30 03:30:14;;;;;;;5.50;3.97;;;6.90;99.90;;;;;;4965526;28;20211;-71
2022/05/30 03:32:41;;;;;;;6.17;3.80;;;6.80;99.90;;;;;;4967718;28;20176;-71
2022/05/30 03:35:07;;;;;;;4.80;4.13;;;7.10;99.90;;;;;;4966724;28;20463;-71
2022/05/30 03:37:36;;;;;;;6.83;4.80;;;6.80;99.90;;;;;;4975293;28;20419;-70
2022/05/30 03:40:03;;;;;;;6.03;4.17;;;7.20;99.90;;;;;;4962348;28;20984;-70
2022/05/30 03:42:29;;;;;;;9.27;4.13;;;6.80;99.90;;;;;;4974650;28;20518;-71
2022/05/30 03:44:54;;;;;;;7.30;4.47;;;6.80;99.90;;;;;;4968303;28;20917;-71
2022/05/30 03:47:20;;;;;;;4.17;3.77;;;7.10;99.90;;;;;;4978085;28;20406;-70
2022/05/30 03:49:45;;;;;;;5.10;4.10;;;7.00;99.90;;;;;;4969542;28;20254;-70
2022/05/30 03:52:11;;;;;;;4.50;4.10;;;6.80;99.90;;;;;;4977944;28;20175;-70
2022/05/30 03:54:36;;;;;;;6.27;3.90;;;6.80;99.90;;;;;;4970540;28;20204;-71
2022/05/30 03:57:03;;;;;;;6.00;3.90;;;6.90;99.90;;;;;;4971004;28;20202;-70
2022/05/30 03:59:28;;;;;;;5.33;4.30;;;6.80;99.90;;;;;;4977374;28;20199;-70
2022/05/30 04:01:54;;;;;;;4.60;3.70;;;6.90;99.90;;;;;;4977902;28;20423;-71
2022/05/30 04:04:19;;;;;;;5.00;4.27;;;7.10;99.90;;;;;;4981783;28;20693;-70
2022/05/30 04:06:45;;;;;;;6.63;4.47;;;6.80;99.90;;;;;;4967768;28;20208;-70
2022/05/30 04:09:10;;;;;;;5.97;4.27;;;6.80;99.90;;;;;;4973151;28;20210;-71
2022/05/30 04:11:36;;;;;;;4.93;3.80;;;7.30;99.90;;;;;;4977677;28;20206;-72
2022/05/30 04:14:01;;;;;;;5.00;4.07;;;6.90;99.90;;;;;;4967374;28;20199;-70
2022/05/30 04:16:27;;;;;;;7.40;4.60;;;6.90;99.90;;;;;;4975539;28;20180;-70
2022/05/30 04:18:53;;;;;;;5.17;4.07;;;7.20;99.90;;;;;;4980087;28;20243;-71
2022/05/30 04:21:19;;;;;;;4.90;4.30;;;7.30;99.90;;;;;;4976880;28;20958;-71
2022/05/30 04:23:45;;;;;;;5.80;4.03;;;7.40;99.90;;;;;;4973720;28;20491;-70
2022/05/30 04:26:13;;;;;;;5.00;3.90;;;7.20;99.90;;;;;;4971061;28;20419;-71
2022/05/30 04:28:39;;;;;;;5.70;4.43;;;7.70;99.90;;;;;;4975658;28;20211;-71
2022/05/30 04:31:10;;;;;;;4.40;4.00;;;7.40;99.90;;;;;;4978655;28;20450;-70
2022/05/30 04:33:37;;;;;;;5.60;4.37;;;7.90;99.90;;;;;;4988534;28;20198;-71
2022/05/30 04:36:03;;;;;;;5.70;3.77;;;7.90;99.90;;;;;;4970873;28;20502;-71
2022/05/30 04:38:30;;;;;;;4.30;3.90;;;7.50;99.90;;;;;;4980143;28;20544;-70
2022/05/30 04:40:55;;;;;;;5.07;4.07;;;7.60;99.90;;;;;;4979161;28;20486;-72
2022/05/30 04:43:21;;;;;;;5.57;4.60;;;7.70;99.90;;;;;;4985776;28;20406;-70
2022/05/30 04:45:46;;;;;;;5.93;4.90;;;7.80;99.90;;;;;;4972792;28;20204;-71
2022/05/30 04:48:12;;;;;;;7.37;5.10;;;8.20;99.90;;;;;;4983215;28;20194;-70
2022/05/30 04:50:38;;;;;;;5.30;4.27;;;8.00;99.90;;;;;;4971185;28;20187;-71
2022/05/30 04:53:03;;;;;;;5.20;4.00;;;8.10;99.90;;;;;;4973062;28;20211;-71
2022/05/30 04:55:29;;;;;;;4.90;4.07;;;8.20;99.90;;;;;;4970290;28;20214;-71
2022/05/30 04:57:55;;;;;;;8.27;4.10;;;8.30;99.90;;;;;;4971042;28;20725;-70
2022/05/30 05:00:24;;;;;;;6.00;4.53;;;8.40;99.90;;;;;;4977178;28;20179;-71
2022/05/30 05:02:52;;;;;;;4.73;4.13;;;8.50;99.90;;;;;;4988491;28;20175;-71
2022/05/30 05:05:17;;;;;;;5.00;4.47;;;8.70;99.90;;;;;;4980854;28;20469;-71
2022/05/30 05:08:14;;;;;;;6.53;4.87;;;8.70;99.90;;;;;;4978282;28;20411;-71
2022/05/30 05:11:01;;;;;;;7.13;4.90;;;8.80;99.90;;;;;;4981798;28;20183;-71
2022/05/30 05:13:26;;;;;;;5.27;4.30;;;8.90;99.90;;;;;;4970327;28;21054;-71
2022/05/30 05:15:56;;;;;;;6.60;5.00;;;9.00;99.90;;;;;;4978408;28;20450;-71
2022/05/30 05:18:22;;;;;;;5.73;4.63;;;9.10;99.90;;;;;;4982870;28;20203;-71
2022/05/30 05:20:47;;;;;;;7.33;5.30;;;9.30;99.90;;;;;;4982334;28;20904;-71
2022/05/30 05:23:13;;;;;;;5.70;4.40;;;9.30;99.90;;;;;;4970294;28;20680;-70
2022/05/30 05:25:40;;;;;;;7.27;4.83;;;9.40;99.90;;;;;;4969944;28;20207;-71
2022/05/30 05:28:06;;;;;;;6.67;5.30;;;9.40;99.90;;;;;;4970275;28;20533;-71
2022/05/30 05:30:32;;;;;;;7.90;5.50;;;9.50;99.90;;;;;;4971691;28;20467;-72
2022/05/30 05:32:58;;;;;;;9.17;4.70;;;9.50;99.90;;;;;;4979537;28;20454;-71
2022/05/30 05:35:24;;;;;;;6.17;4.60;;;9.60;99.90;;;;;;4983253;28;20479;-71
2022/05/30 05:37:49;;;;;;;5.60;4.90;;;9.70;99.90;;;;;;4977211;28;20626;-70
2022/05/30 05:40:15;;;;;;;5.70;4.60;;;9.80;99.40;;;;;;4974768;28;20457;-72
2022/05/30 05:42:40;;;;;;;5.33;4.70;;;9.90;99.50;;;;;;4969802;28;20207;-71
2022/05/30 05:45:07;;;;;;;7.20;5.50;;;9.90;99.40;;;;;;4981838;28;20269;-72
2022/05/30 05:47:34;;;;;;;5.13;4.30;;;10.00;98.10;;;;;;4981296;28;20193;-71
2022/05/30 05:49:59;;;;;;;5.93;4.67;;;10.20;99.10;;;;;;4969078;28;20439;-71
2022/05/30 05:52:28;;;;;;;4.90;3.90;;;10.20;96.60;;;;;;4975582;28;20761;-71
2022/05/30 05:54:55;;;;;;;6.00;4.60;;;10.20;98.20;;;;;;4966230;28;20203;-72
2022/05/30 05:57:21;;;;;;;5.60;4.40;;;10.20;96.30;;;;;;4964078;28;20430;-71
2022/05/30 05:59:47;;;;;;;5.37;4.57;;;10.30;96.60;;;;;;4977495;28;20458;-74
2022/05/30 06:02:13;;;;;;;8.57;4.23;;;;;;;;;;4964552;28;21760;-74
2022/05/30 06:04:39;;;;;;;5.57;4.20;;;10.50;94.80;;;;;;4963814;28;20276;-75
2022/05/30 06:07:05;;;;;;;5.63;4.93;;;10.60;95.40;;;;;;4968826;28;20188;-74
2022/05/30 06:09:31;;;;;;;4.73;4.23;;;10.70;96.00;;;;;;4963454;28;20454;-74
2022/05/30 06:12:00;;;;;;;4.83;4.13;;;10.80;96.00;;;;;;4974064;28;20446;-76
2022/05/30 06:14:26;;;;;;;5.13;4.30;;;10.90;93.70;;;;;;4970632;28;20204;-74
2022/05/30 06:16:52;;;;;;;4.83;4.33;;;10.90;94.30;;;;;;4972772;28;20493;-74
2022/05/30 06:19:18;;;;;;;7.20;4.50;;;11.00;92.90;;;;;;4964547;28;20623;-73
2022/05/30 06:21:43;;;;;;;4.90;3.73;;;11.20;93.20;;;;;;4968655;28;20207;-73
2022/05/30 06:24:10;;;;;;;4.30;3.83;;;11.40;95.30;;;;;;4968695;28;20220;-75
2022/05/30 06:26:36;;;;;;;3.70;3.40;;;11.50;89.80;;;;;;4959885;28;20194;-74
2022/05/30 06:29:02;;;;;;;4.47;3.60;;;11.50;87.80;;;;;;4970237;28;20917;-75
2022/05/30 06:31:30;;;;;;;4.43;3.40;;;11.60;79.00;;;;;;4968879;28;20753;-73
2022/05/30 06:33:58;;;;;;;3.50;3.20;;;11.60;76.60;;;;;;4970325;28;20435;-76
2022/05/30 06:36:25;;;;;;;4.00;3.60;;;11.60;74.90;;;;;;4970367;28;20784;-74
2022/05/30 06:38:51;;;;;;;4.20;3.70;;;11.70;74.90;;;;;;4971061;28;20859;-71
2022/05/30 06:41:26;;;;;;;4.20;3.27;;;10.70;73.70;;;;;;4959802;28;20620;-71
2022/05/30 06:43:57;;;;;;;4.60;3.30;;;11.90;74.40;;;;;;4966282;28;20996;-70
2022/05/30 06:46:22;;;;;;;3.93;3.50;;;12.00;76.20;;;;;;4962502;28;20443;-71
2022/05/30 06:48:48;;;;;;;3.53;3.23;;;12.00;76.70;;;;;;4967949;28;20913;-71
2022/05/30 06:51:18;;;;;;;4.67;3.40;;;12.20;77.70;;;;;;4963382;28;20275;-70
2022/05/30 06:53:44;;;;;;;3.87;3.47;;;12.40;77.00;;;;;;4968808;28;20530;-71
2022/05/30 06:56:25;;;;;;;3.93;3.00;;;12.50;70.90;;;;;;4960656;28;21073;-71
2022/05/30 06:58:52;;;;;;;4.40;3.07;;;12.60;69.50;;;;;;4977173;28;20202;-72
2022/05/30 07:01:19;;;;;;;6.47;2.90;;;12.70;63.70;;;;;;4972665;28;20732;-72
2022/05/30 07:03:45;;;;;;;5.50;3.17;;;12.90;60.80;;;;;;4972876;28;20461;-71
2022/05/30 07:06:14;;;;;;;3.40;3.10;;;13.10;60.50;;;;;;4970058;28;20885;-72
2022/05/30 07:08:41;;;;;;;4.70;2.97;;;13.30;56.00;;;;;;4971182;28;20188;-70
2022/05/30 07:11:07;;;;;;;3.77;3.00;;;13.40;42.80;;;;;;4964596;28;20954;-70
2022/05/30 07:13:32;;;;;;;3.17;2.57;;;13.70;42.30;;;;;;4976545;28;20437;-71
2022/05/30 07:15:58;;;;;;;3.70;2.77;;;13.80;41.20;;;;;;4968385;28;20559;-72
2022/05/30 07:18:24;;;;;;;2.73;2.50;;;14.10;41.30;;;;;;4967536;28;20215;-71
2022/05/30 07:20:57;;;;;;;3.10;2.50;;;14.30;41.50;;;;;;4963678;28;20259;-72
2022/05/30 07:23:23;;;;;;;4.53;2.57;;;14.30;41.50;;;;;;4979506;28;20172;-70
2022/05/30 07:25:50;;;;;;;3.13;2.50;;;14.50;41.20;;;;;;4964492;28;20526;-70
2022/05/30 07:28:16;;;;;;;2.63;2.30;;;14.80;28.30;;;;;;4958134;28;21026;-69
2022/05/30 07:30:42;;;;;;;6.50;2.60;;;14.90;22.40;;;;;;4954843;28;20428;-70
2022/05/30 07:33:08;;;;;;;2.80;2.30;;;15.00;23.70;;;;;;4962309;28;20187;-72
2022/05/30 07:35:35;;;;;;;3.10;2.37;;;15.20;17.30;;;;;;4957898;28;20200;-70
2022/05/30 07:38:01;;;;;;;2.70;2.50;;;15.40;17.00;;;;;;4958544;28;20456;-70
2022/05/30 07:40:26;;;;;;;4.10;2.40;;;15.70;13.40;;;;;;4963342;28;20426;-71
2022/05/30 07:42:52;;;;;;;3.90;2.30;;;15.70;15.20;;;;;;4957726;28;20199;-72
2022/05/30 07:45:17;;;;;;;3.20;2.50;;;16.00;14.70;;;;;;4961647;28;20196;-71
2022/05/30 07:47:43;;;;;;;3.73;2.47;;;16.30;12.20;;;;;;4962766;28;21769;-71
2022/05/30 07:50:09;;;;;;;4.70;2.50;;;16.40;7.90;;;;;;4964044;28;20632;-72
2022/05/30 07:52:34;;;;;;;3.30;2.50;;;16.60;6.60;;;;;;4960861;28;20184;-70
2022/05/30 07:55:02;;;;;;;3.73;2.50;;;16.60;4.30;;;;;;4957102;28;20447;-72
2022/05/30 08:00:14;;;;;;;2.70;2.50;;;16.90;6.10;;;;;;4963108;28;20892;-71
2022/05/30 08:02:40;;;;;;;2.70;2.40;;;17.00;5.90;;;;;;4974284;28;20435;-71
2022/05/30 08:05:08;;;;;;;2.30;2.10;;;17.10;4.20;;;;;;4970055;28;20478;-71
2022/05/30 08:07:33;;;;;;;3.30;2.30;;;17.40;5.20;;;;;;4976916;28;20416;-71
2022/05/30 08:09:59;;;;;;;4.07;2.60;;;17.60;1.40;;;;;;4977658;28;20929;-71
2022/05/30 08:12:24;;;;;;;7.33;2.83;;;17.80;1.00;;;;;;4963549;28;20184;-70
2022/05/30 08:14:50;;;;;;;11.43;3.30;;;18.00;1.00;;;;;;4961589;28;20239;-72
2022/05/30 08:17:15;;;;;;;4.50;2.93;;;18.60;1.00;;;;;;4964445;28;20658;-72
2022/05/30 08:19:41;;;;;;;4.40;2.70;;;18.00;1.00;;;;;;4970089;28;20610;-71
2022/05/30 08:22:10;;;;;;;3.10;2.40;;;18.00;1.00;;;;;;4966164;28;20191;-71
2022/05/30 08:24:38;;;;;;;2.83;2.60;;;18.10;1.00;;;;;;4976361;28;20564;-71
2022/05/30 08:27:04;;;;;;;3.87;2.50;;;18.10;1.00;;;;;;4971032;28;20447;-72
2022/05/30 08:29:30;;;;;;;3.67;2.87;;;17.90;1.00;;;;;;4973321;28;20521;-71
2022/05/30 08:31:56;;;;;;;4.10;2.50;;;18.00;1.00;;;;;;4979041;28;20457;-70
2022/05/30 08:34:22;;;;;;;3.50;2.30;;;18.30;1.00;;;;;;4969788;28;20207;-71
2022/05/30 08:36:47;;;;;;;3.67;2.77;;;18.40;1.00;;;;;;4966055;28;20574;-71
2022/05/30 08:42:00;;;;;;;3.10;2.57;;;19.40;1.00;;;;;;4974562;28;20501;-71
2022/05/30 08:44:29;;;;;;;2.90;2.50;;;20.00;1.00;;;;;;4965870;28;20442;-71
2022/05/30 08:47:06;;;;;;;3.13;2.50;;;20.40;1.00;;;;;;4967868;28;20573;-72
2022/05/30 08:49:47;;;;;;;4.60;2.97;;;21.00;1.00;;;;;;4978643;28;20845;-71
2022/05/30 08:52:36;;;;;;;3.70;2.80;;;21.30;1.00;;;;;;4971458;28;20437;-71
2022/05/30 08:55:36;;;;;;;4.00;2.63;;;21.50;1.00;;;;;;4960836;28;20449;-71
2022/05/30 08:58:46;;;;;;;4.43;2.63;;;21.90;1.00;;;;;;4928259;28;20484;-71
2022/05/30 09:01:24;;;;;;;3.67;2.40;;;22.00;1.00;;;;;;4907873;29;20516;-70
2022/05/30 09:04:08;;;;;;;3.43;2.67;;;21.80;1.00;;;;;;4970224;28;20450;-71
2022/05/30 09:06:40;;;;;;;5.60;2.70;;;21.90;1.00;;;;;;4977200;28;20470;-71
2022/05/30 09:09:17;;;;;;;3.40;2.70;;;21.90;1.00;;;;;;4974626;28;20770;-71
2022/05/30 09:12:09;;;;;;;3.97;2.83;;;21.40;1.00;;;;;;4974335;28;20897;-72
2022/05/30 09:14:36;;;;;;;3.30;2.50;;;20.90;1.00;;;;;;4956805;28;20525;-72
2022/05/30 09:17:05;;;;;;;2.90;2.40;;;20.90;1.00;;;;;;4971347;28;20450;-71
2022/05/30 09:19:31;;;;;;;4.77;2.90;;;20.50;1.00;;;;;;4970969;28;21313;-71
2022/05/30 09:22:01;;;;;;;3.63;2.50;;;20.30;1.00;;;;;;4969024;28;20545;-71
2022/05/30 09:24:29;;;;;;;3.30;2.40;;;20.40;1.00;;;;;;4974830;28;20231;-71
2022/05/30 09:26:57;;;;;;;5.47;2.93;;;20.60;1.00;;;;;;4962624;28;20668;-71
2022/05/30 09:29:24;;;;;;;3.57;2.60;;;20.80;1.00;;;;;;4979152;28;20520;-71
2022/05/30 09:32:14;;;;;;;3.00;2.33;;;20.90;1.00;;;;;;4968252;28;20427;-72
2022/05/30 09:34:40;;;;;;;3.60;2.33;;;20.90;1.00;;;;;;4967303;28;20609;-71
2022/05/30 09:37:06;;;;;;;3.00;2.10;;;20.90;1.00;;;;;;4971079;28;20528;-71
2022/05/30 09:39:46;;;;;;;3.40;2.33;;;21.30;1.00;;;;;;4971670;28;20217;-71
2022/05/30 09:42:30;;;;;;;3.47;2.37;;;23.00;1.00;;;;;;4970567;28;20897;-71
2022/05/30 09:45:25;;;;;;;3.47;2.63;;;23.50;1.00;;;;;;4970005;28;20459;-71
2022/05/30 09:48:01;;;;;;;5.50;2.80;;;22.70;1.00;;;;;;4965963;28;20783;-71
2022/05/30 09:50:27;;;;;;;4.97;2.70;;;21.70;1.00;;;;;;4978881;28;20505;-72
2022/05/30 09:52:53;;;;;;;4.60;2.43;;;21.20;1.00;;;;;;4959608;28;20824;-72
2022/05/30 09:55:21;;;;;;;3.17;2.40;;;21.10;1.00;;;;;;4971943;28;20217;-72
2022/05/30 09:57:47;;;;;;;4.30;2.60;;;21.10;1.00;;;;;;4970036;28;20195;-72
2022/05/30 10:00:37;;;;;;;3.13;2.10;;;21.20;1.00;;;;;;4967344;28;20461;-72
2022/05/30 10:03:09;;;;;;;3.60;2.43;;;21.20;1.00;;;;;;4968277;28;20657;-72
2022/05/30 10:05:37;;;;;;;3.70;2.80;;;21.40;1.00;;;;;;4969006;28;20485;-72
2022/05/30 10:08:07;;;;;;;3.33;2.30;;;21.50;1.00;;;;;;4977152;28;20782;-72
2022/05/30 10:10:46;;;;;;;3.87;2.60;;;21.40;1.00;;;;;;4982021;28;20425;-71
2022/05/30 10:13:12;;;;;;;4.20;2.40;;;21.50;1.00;;;;;;4952604;28;20435;-72
2022/05/30 10:15:43;;;;;;;6.50;4.37;;;21.30;1.00;;;;;;4969349;28;20435;-72
2022/05/30 10:18:17;;;;;;;3.43;2.43;;;21.50;1.00;;;;;;4969557;28;20490;-72
2022/05/30 10:21:05;;;;;;;6.87;2.50;;;20.80;1.00;;;;;;4986503;28;20457;-71
2022/05/30 10:30:17;;;;;;;5.47;2.10;;;28.30;1.00;;;;;;4955435;28;20425;-72
2022/05/30 10:33:14;;;;;;;4.47;2.30;;;27.10;1.00;;;;;;4977017;28;20222;-72
2022/05/30 10:35:50;;;;;;;3.33;2.40;;;26.30;1.00;;;;;;4966234;28;20575;-72
2022/05/30 10:38:26;;;;;;;2.67;2.23;;;26.30;1.00;;;;;;4974887;28;20649;-72
2022/05/30 10:41:20;;;;;;;7.10;2.30;;;27.00;1.00;;;;;;4958394;28;20258;-74
2022/05/30 10:43:57;;;;;;;3.77;2.83;;;26.30;1.00;;;;;;4968218;28;20171;-73
2022/05/30 10:46:48;;;;;;;4.97;2.77;;;26.30;1.00;;;;;;4981370;28;20186;-72
2022/05/30 10:49:18;;;;;;;4.33;2.83;;;25.50;1.00;;;;;;4924671;28;20331;-72
2022/05/30 10:52:01;;;;;;;4.37;2.70;;;24.40;1.00;;;;;;4968283;28;20275;-73
2022/05/30 10:54:37;;;;;;;4.80;2.47;;;23.70;1.00;;;;;;4972531;28;21019;-72
2022/05/30 10:57:17;;;;;;;5.40;2.97;;;23.10;1.00;;;;;;4962601;28;20435;-72
2022/05/30 10:59:52;;;;;;;3.47;2.60;;;22.60;1.00;;;;;;4967316;28;20478;-72
2022/05/30 11:02:27;;;;;;;4.83;2.63;;;22.40;1.00;;;;;;4964337;28;20434;-71
2022/05/30 11:05:01;;;;;;;4.00;2.20;;;22.20;1.00;;;;;;4965327;28;20743;-72
2022/05/30 11:07:45;;;;;;;4.60;2.40;;;22.30;1.00;;;;;;4964254;28;20513;-72
2022/05/30 11:10:41;;;;;;;3.87;2.50;;;22.80;1.00;;;;;;4969563;28;20458;-72
2022/05/30 11:13:23;;;;;;;3.00;2.27;;;23.30;1.00;;;;;;4959971;28;20422;-72
2022/05/30 11:15:55;;;;;;;3.43;2.20;;;23.60;1.00;;;;;;4976139;28;20453;-72
2022/05/30 11:18:35;;;;;;;3.70;2.27;;;24.40;1.00;;;;;;4969109;28;20536;-73
2022/05/30 11:21:27;;;;;;;3.10;2.30;;;24.30;1.00;;;;;;4971789;28;20432;-71
2022/05/30 11:23:53;;;;;;;5.00;2.50;;;25.50;1.00;;;;;;4952055;28;20423;-72
2022/05/30 11:26:44;;;;;;;3.53;2.60;;;25.60;1.00;;;;;;4967082;28;20456;-72
2022/05/30 11:29:30;;;;;;;3.47;2.23;;;28.00;1.00;;;;;;4966664;28;20206;-72
2022/05/30 11:32:07;;;;;;;3.50;2.23;;;30.20;1.00;;;;;;4971723;28;20191;-72
2022/05/30 11:35:14;;;;;;;3.10;2.20;;;31.50;1.00;;;;;;4956914;28;20695;-73
2022/05/30 11:38:01;;;;;;;8.25;2.65;;;30.60;1.00;;;;;;4945696;28;20212;-72
2022/05/30 11:40:35;;;;;;;8.23;6.20;;;28.70;1.00;;;;;;4961263;28;20218;-72
2022/05/30 11:43:22;;;;;;;5.57;3.90;;;27.80;1.00;;;;;;4959079;28;20190;-72
2022/05/30 11:45:57;;;;;;;5.17;2.20;;;27.00;1.00;;;;;;4963173;28;20238;-72
2022/05/30 11:48:48;;;;;;;6.30;2.38;;;28.40;1.00;;;;;;4959565;28;20179;-72
2022/05/30 11:51:23;;;;;;;5.45;2.60;;;31.50;1.00;;;;;;4954495;28;20185;-72
2022/05/30 11:53:58;;;;;;;5.72;2.20;;;33.60;1.00;;;;;;4960611;28;20214;-73
2022/05/30 11:56:52;;;;;;;3.65;2.17;;;32.80;1.00;;;;;;4974712;28;20233;-72
2022/05/30 11:59:36;;;;;;;4.63;2.50;;;31.60;1.00;;;;;;4955101;28;20207;-72
2022/05/30 12:02:06;;;;;;;3.80;2.10;;;30.00;1.00;;;;;;4962790;28;20257;-72
2022/05/30 12:05:05;;;;;;;5.25;2.10;;;28.30;1.00;;;;;;4961339;28;20325;-72
2022/05/30 12:07:51;;;;;;;3.50;2.40;;;27.30;1.00;;;;;;4962240;28;20269;-72
2022/05/30 12:10:43;;;;;;;3.97;2.40;;;26.60;1.00;;;;;;4959263;28;20179;-72
2022/05/30 12:13:33;;;;;;;4.13;2.43;;;26.70;1.00;;;;;;4975503;28;20248;-72
2022/05/30 12:16:36;;;;;;;3.93;2.40;;;27.60;1.00;;;;;;4979475;28;20276;-71
2022/05/30 12:24:41;;;;;;;3.17;2.30;;;26.70;1.00;;;;;;4961275;28;20263;-71
2022/05/30 12:27:26;;;;;;;7.85;2.38;;;29.30;1.00;;;;;;4963830;28;20183;-72
2022/05/30 12:29:53;;;;;;;2.92;2.00;;;32.00;1.00;;;;;;4964411;28;20273;-73
2022/05/30 12:32:21;;;;;;;4.43;2.33;;;33.50;1.00;;;;;;4959602;28;20196;-71
2022/05/30 12:35:05;;;;;;;4.10;2.25;;;34.70;1.00;;;;;;4964535;28;20277;-73
2022/05/30 12:37:52;;;;;;;3.55;2.30;;;34.40;1.00;;;;;;4959438;28;20183;-72
2022/05/30 12:40:26;;;;;;;4.38;2.20;;;31.90;1.00;;;;;;4970061;28;20467;-72
2022/05/30 12:43:07;;;;;;;3.95;2.72;;;32.20;1.00;;;;;;4966039;28;20176;-73
2022/05/30 12:45:51;;;;;;;4.35;2.85;;;33.90;1.00;;;;;;4971948;28;20548;-73
2022/05/30 12:48:44;;;;;;;3.92;2.05;;;35.20;1.00;;;;;;4964768;28;20592;-72
2022/05/30 12:51:39;;;;;;;4.85;2.35;;;36.40;1.00;;;;;;4966135;28;20182;-72
2022/05/30 12:54:07;;;;;;;6.22;4.82;;;37.40;1.00;;;;;;4947274;28;20288;-73
2022/05/30 12:56:39;;;;;;;3.20;2.20;;;37.50;1.00;;;;;;4970973;28;20211;-73
2022/05/30 12:59:18;;;;;;;4.03;2.53;;;35.50;1.00;;;;;;4969946;28;20264;-73
2022/05/30 13:01:44;;;;;;;2.60;1.80;;;33.60;1.00;;;;;;4981013;28;20174;-72
2022/05/30 13:04:15;;;;;;;3.22;2.25;;;32.10;1.00;;;;;;4980957;28;20222;-73
2022/05/30 13:07:07;;;;;;;3.10;2.20;;;30.40;1.00;;;;;;4967312;28;20510;-73
2022/05/30 13:09:36;;;;;;;2.90;2.00;;;29.90;1.00;;;;;;4960386;28;20282;-72
2022/05/30 13:12:14;;;;;;;4.47;2.42;;;31.90;1.00;;;;;;4969386;28;20203;-72
2022/05/30 13:14:48;;;;;;;4.53;3.42;;;31.30;1.00;;;;;;4974824;28;20206;-73
2022/05/30 13:17:22;;;;;;;3.88;2.03;;;30.20;1.00;;;;;;4963899;28;20202;-73
2022/05/30 13:20:02;;;;;;;3.50;2.17;;;30.20;1.00;;;;;;4969973;28;20253;-72
2022/05/30 13:22:35;;;;;;;4.18;2.08;;;30.60;1.00;;;;;;4961568;28;20187;-73
2022/05/30 13:25:03;;;;;;;3.53;1.90;;;31.10;1.00;;;;;;4969399;28;20822;-72
2022/05/30 13:27:29;;;;;;;2.97;2.05;;;32.60;1.00;;;;;;4965884;28;20275;-72
2022/05/30 13:30:00;;;;;;;3.53;1.98;;;34.40;1.00;;;;;;4968318;28;20544;-72
2022/05/30 13:32:25;;;;;;;3.28;2.10;;;35.10;1.00;;;;;;4976558;28;20186;-72
2022/05/30 13:34:57;;;;;;;3.75;2.20;;;35.30;1.00;;;;;;4967414;28;20195;-72
2022/05/30 13:37:29;;;;;;;3.08;1.73;;;35.10;1.00;;;;;;4957164;28;20201;-72
2022/05/30 13:39:59;;;;;;;2.60;1.70;;;34.90;1.00;;;;;;4967141;28;20215;-73
2022/05/30 13:42:31;;;;;;;3.35;1.77;;;35.00;1.00;;;;;;4965534;28;20262;-73